Time;durP1;ratioP1;P1;durP2;ratioP2;P2;SDS_P1;SDS_P2;PMS_P1;PMS_P2;Temp;Humidity;BMP_temperature;BMP_pressure;BME280_temperature;BME280_humidity;BME280_pressure;Samples;Min_cycle;Max_cycle;Signal;HPM_P1;HPM_P2
2022/02/03 04:46:14;;;;;;;1.27;1.17;;;;;;;;;;5051110;28;22667;-69
2022/02/03 04:55:00;;;;;;;5.83;1.50;;;;;;;;;;5047584;28;20234;-69
2022/02/03 04:58:07;;;;;;;1.17;1.07;;;;;;;;;;5047959;28;20213;-68
2022/02/03 05:01:01;;;;;;;0.87;0.87;;;;;;;;;;5052267;28;20722;-70
2022/02/03 05:03:49;;;;;;;0.20;0.20;;;;;;;;;;5049754;28;20211;-70
2022/02/03 05:06:30;;;;;;;0.00;0.00;;;;;;;;;;5049968;28;20205;-68
2022/02/03 05:09:19;;;;;;;1.23;1.13;;;;;;;;;;5050990;28;20195;-69
2022/02/03 05:12:14;;;;;;;6.33;1.50;;;;;;;;;;5051307;28;20254;-68
2022/02/03 05:15:12;;;;;;;0.20;0.20;;;;;;;;;;5051398;28;20573;-67
2022/02/03 05:18:19;;;;;;;0.43;0.27;;;;;;;;;;5051817;28;20206;-68
2022/02/03 05:24:34;;;;;;;0.83;0.83;;;;;;;;;;5047127;28;20582;-69
2022/02/03 05:44:28;;;;;;;1.47;1.03;;;;;;;;;;5050717;28;20210;-67
2022/02/03 05:47:22;;;;;;;2.17;1.60;;;;;;;;;;5050238;28;20195;-73
2022/02/03 06:04:03;;;;;;;0.37;0.30;;;;;;;;;;5037774;28;20557;-67
2022/02/03 06:09:36;;;;;;;3.73;1.87;;;;;;;;;;5035809;28;20632;-72
2022/02/03 06:12:27;;;;;;;2.03;1.83;;;;;;;;;;5039289;28;20227;-67
2022/02/03 06:15:01;;;;;;;0.90;0.90;;;;;;;;;;5037007;28;20195;-67
2022/02/03 06:17:34;;;;;;;0.90;0.90;;;;;;;;;;5034173;28;20196;-68
2022/02/03 06:22:51;;;;;;;4.83;2.10;;;;;;;;;;5040185;28;20583;-67
2022/02/03 06:28:04;;;;;;;1.63;1.53;;;;;;;;;;5037225;28;20210;-67
2022/02/03 06:30:31;;;;;;;1.77;1.67;;;;;;;;;;5038836;28;20202;-67
2022/02/03 06:32:59;;;;;;;0.20;0.20;;;;;;;;;;5033524;28;20568;-66
2022/02/03 06:35:26;;;;;;;2.37;1.43;;;;;;;;;;5040638;28;20705;-68
2022/02/03 06:37:55;;;;;;;0.00;0.00;;;;;;;;;;5035489;28;20204;-67
2022/02/03 06:40:22;;;;;;;0.20;0.20;;;;;;;;;;5034538;28;20550;-69
2022/02/03 06:42:55;;;;;;;0.73;0.70;;;;;;;;;;5034922;28;20597;-67
2022/02/03 06:45:34;;;;;;;0.10;0.10;;;;;;;;;;5039896;28;20196;-67
2022/02/03 06:48:05;;;;;;;1.93;1.60;;;;;;;;;;5046970;28;20192;-68
2022/02/03 06:50:38;;;;;;;0.27;0.27;;;;;;;;;;5048884;28;20238;-67
2022/02/03 06:53:11;;;;;;;1.30;1.20;;;;;;;;;;5035502;28;20203;-66
2022/02/03 06:55:45;;;;;;;0.00;0.00;;;;;;;;;;5033935;28;20250;-67
2022/02/03 06:58:19;;;;;;;1.47;1.17;;;;;;;;;;5047823;28;20679;-67
2022/02/03 07:00:57;;;;;;;0.93;0.93;;;;;;;;;;5042223;28;20713;-66
2022/02/03 07:03:28;;;;;;;0.67;0.43;;;;;;;;;;5037278;28;20204;-66
2022/02/03 07:05:55;;;;;;;0.97;0.80;;;;;;;;;;5033789;28;20204;-67
2022/02/03 07:08:25;;;;;;;0.70;0.33;;;;;;;;;;5047606;28;20195;-68
2022/02/03 07:10:54;;;;;;;3.37;2.33;;;;;;;;;;5045562;28;20203;-66
2022/02/03 07:13:22;;;;;;;1.40;1.30;;;;;;;;;;5040160;28;20199;-68
2022/02/03 07:15:49;;;;;;;2.00;1.80;;;;;;;;;;5037221;28;20288;-68
2022/02/03 07:18:16;;;;;;;3.17;1.80;;;;;;;;;;5035450;28;20204;-67
2022/02/03 07:20:44;;;;;;;0.97;0.83;;;;;;;;;;5033355;28;20208;-67
2022/02/03 07:23:11;;;;;;;0.87;0.63;;;;;;;;;;5038462;28;20596;-69
2022/02/03 07:25:40;;;;;;;1.53;1.43;;;;;;;;;;5032469;28;20617;-67
2022/02/03 07:28:08;;;;;;;2.20;1.83;;;;;;;;;;5036330;28;20674;-68
2022/02/03 07:30:36;;;;;;;1.00;0.57;;;;;;;;;;5034015;28;20198;-66
2022/02/03 07:33:04;;;;;;;1.40;1.30;;;;;;;;;;5031460;28;20199;-66
2022/02/03 07:35:34;;;;;;;4.47;2.30;;;;;;;;;;5032894;28;20216;-66
2022/02/03 07:38:03;;;;;;;0.60;0.30;;;;;;;;;;5035568;28;20658;-68
2022/02/03 07:40:31;;;;;;;0.67;0.67;;;;;;;;;;5033739;28;20712;-68
2022/02/03 07:43:03;;;;;;;3.23;2.77;;;;;;;;;;5032299;28;20215;-71
2022/02/03 07:45:32;;;;;;;3.70;0.77;;;;;;;;;;5036728;28;20669;-67
2022/02/03 07:47:59;;;;;;;2.53;0.93;;;;;;;;;;5046554;28;20298;-68
2022/02/03 07:50:26;;;;;;;1.13;0.87;;;;;;;;;;5040042;28;20203;-68
2022/02/03 07:52:54;;;;;;;1.30;1.13;;;;;;;;;;5047191;28;20199;-67
2022/02/03 07:55:22;;;;;;;0.50;0.50;;;;;;;;;;5043659;28;20191;-68
2022/02/03 07:57:51;;;;;;;0.67;0.20;;;;;;;;;;5034503;28;20200;-68
2022/02/03 08:00:21;;;;;;;2.20;1.53;;;;;;;;;;5037764;28;20615;-66
2022/02/03 08:02:48;;;;;;;1.40;1.27;;;;;;;;;;5046964;28;20242;-67
2022/02/03 08:05:18;;;;;;;0.17;0.17;;;;;;;;;;5032603;28;20196;-67
2022/02/03 08:07:49;;;;;;;1.33;1.23;;;;;;;;;;5037787;28;20211;-66
2022/02/03 08:10:30;;;;;;;1.80;1.70;;;;;;;;;;5046318;28;20208;-66
2022/02/03 08:13:00;;;;;;;2.03;1.87;;;;;;;;;;5035042;28;20200;-66
2022/02/03 08:15:31;;;;;;;0.10;0.10;;;;;;;;;;5038859;28;20653;-67
2022/02/03 08:18:03;;;;;;;1.67;1.57;;;;;;;;;;5040201;28;20294;-70
2022/02/03 08:20:32;;;;;;;1.07;0.90;;;;;;;;;;5031500;28;20576;-66
2022/02/03 08:23:16;;;;;;;0.20;0.20;;;;;;;;;;5037394;28;20914;-65
2022/02/03 08:25:49;;;;;;;18.67;0.97;;;;;;;;;;5035787;28;20855;-68
2022/02/03 08:28:53;;;;;;;0.77;0.60;;;;;;;;;;5036101;28;20201;-66
2022/02/03 08:31:25;;;;;;;1.87;1.43;;;;;;;;;;5042303;28;20203;-70
2022/02/03 08:33:55;;;;;;;2.10;1.07;;;;;;;;;;5032777;28;20208;-66
2022/02/03 08:36:23;;;;;;;0.37;0.37;;;;;;;;;;5032596;28;20715;-68
2022/02/03 08:38:55;;;;;;;2.13;1.93;;;;;;;;;;5032730;28;20203;-67
2022/02/03 08:41:25;;;;;;;0.97;0.90;;;;;;;;;;5035436;28;20246;-67
2022/02/03 08:43:52;;;;;;;3.03;0.90;;;;;;;;;;5035294;28;20211;-69
2022/02/03 08:46:24;;;;;;;1.07;1.03;;;;;;;;;;5035246;28;20677;-69
2022/02/03 08:48:53;;;;;;;0.20;0.20;;;;;;;;;;5037143;28;20616;-69
2022/02/03 08:51:21;;;;;;;6.27;2.70;;;;;;;;;;5037718;28;20203;-69
2022/02/03 08:53:51;;;;;;;1.57;0.97;;;;;;;;;;5037471;28;20666;-69
2022/02/03 09:29:29;;;;;;;3.93;3.30;;;;;;;;;;4972543;28;20219;-67
2022/02/03 09:34:53;;;;;;;2.03;1.83;;;;;;;;;;4961829;28;20217;-68
2022/02/03 09:57:17;;;;;;;1.07;1.07;;;;;;;;;;4972950;28;20186;-68
2022/02/03 09:59:58;;;;;;;0.00;0.00;;;;;;;;;;4970240;28;20210;-68
2022/02/03 10:02:29;;;;;;;2.13;1.83;;;;;;;;;;4978076;28;20242;-68
2022/02/03 10:05:00;;;;;;;0.43;0.43;;;;;;;;;;4976891;28;20710;-67
2022/02/03 10:07:32;;;;;;;1.60;0.67;;;;;;;;;;4969980;28;20305;-67
2022/02/03 10:10:07;;;;;;;0.50;0.50;;;;;;;;;;4968395;28;20750;-67
2022/02/03 10:12:36;;;;;;;2.27;2.13;;;;;;;;;;4967492;28;20307;-68
2022/02/03 10:15:05;;;;;;;2.23;0.97;;;;;;;;;;4976332;28;20201;-68
2022/02/03 10:17:33;;;;;;;3.17;1.47;;;;;;;;;;4969540;28;20214;-68
2022/02/03 10:20:01;;;;;;;6.23;2.27;;;;;;;;;;4965049;28;20294;-69
2022/02/03 10:22:28;;;;;;;2.40;1.30;;;;;;;;;;4960046;28;20238;-68
2022/02/03 10:25:03;;;;;;;0.83;0.80;;;;;;;;;;4953596;28;21468;-68
2022/02/03 10:27:37;;;;;;;3.00;2.80;;;;;;;;;;4954282;28;20208;-71
2022/02/03 10:30:21;;;;;;;2.47;1.87;;;;;;;;;;4962628;28;20566;-68
2022/02/03 10:32:48;;;;;;;3.50;1.90;;;;;;;;;;4972259;28;20713;-68
2022/02/03 10:35:22;;;;;;;2.10;1.20;;;;;;;;;;4963459;28;20205;-67
2022/02/03 10:38:07;;;;;;;1.63;1.17;;;;;;;;;;4951867;28;20237;-69
2022/02/03 10:40:52;;;;;;;2.63;2.53;;;;;;;;;;4953776;28;20240;-69
2022/02/03 10:43:49;;;;;;;0.10;0.10;;;;;;;;;;4952053;28;20257;-68
2022/02/03 10:49:43;;;;;;;1.17;1.07;;;;;;;;;;4889382;29;20232;-68
2022/02/03 11:03:59;;;;;;;1.73;0.87;;;;;;;;;;4895533;28;20286;-66
2022/02/03 11:06:33;;;;;;;0.40;0.40;;;;;;;;;;4930490;28;20871;-67
2022/02/03 11:09:06;;;;;;;3.10;2.23;;;;;;;;;;4930383;29;20207;-66
2022/02/03 11:11:37;;;;;;;0.07;0.07;;;;;;;;;;4931797;28;20206;-67
2022/02/03 11:14:06;;;;;;;2.17;1.97;;;;;;;;;;4941854;29;20195;-67
2022/02/03 11:16:37;;;;;;;2.27;2.10;;;;;;;;;;4948963;29;20187;-67
2022/02/03 11:19:07;;;;;;;1.90;1.07;;;;;;;;;;4947439;29;20198;-65
2022/02/03 11:21:36;;;;;;;1.23;1.13;;;;;;;;;;4943609;29;20230;-68
2022/02/03 11:24:08;;;;;;;2.43;1.40;;;;;;;;;;4936688;28;20703;-67
2022/02/03 11:26:46;;;;;;;0.13;0.13;;;;;;;;;;4947053;28;20683;-68
2022/02/03 11:30:05;;;;;;;1.77;0.90;;;;;;;;;;4967098;28;20193;-68
2022/02/03 11:32:47;;;;;;;0.60;0.60;;;;;;;;;;4969669;28;20257;-67
2022/02/03 11:41:42;;;;;;;1.13;1.07;;;;;;;;;;4966387;28;20209;-66
2022/02/03 11:47:25;;;;;;;0.43;0.43;;;;;;;;;;4962881;28;20210;-68
2022/02/03 11:50:23;;;;;;;0.30;0.27;;;;;;;;;;4963565;28;20337;-69
2022/02/03 12:01:53;;;;;;;1.03;1.03;;;;;;;;;;4946295;28;20217;-68
2022/02/03 12:04:49;;;;;;;2.27;1.50;;;;;;;;;;4955911;28;20202;-69
2022/02/03 12:07:47;;;;;;;0.33;0.13;;;;;;;;;;4957754;28;20206;-68
2022/02/03 12:10:51;;;;;;;3.67;1.57;;;;;;;;;;4953703;28;20202;-70
2022/02/03 12:13:46;;;;;;;6.07;2.23;;;;;;;;;;4954962;28;20206;-68
2022/02/03 12:16:22;;;;;;;1.73;1.63;;;;;;;;;;4957012;28;20206;-67
2022/02/03 12:21:49;;;;;;;3.03;1.27;;;;;;;;;;4951697;28;20206;-68
2022/02/03 12:24:29;;;;;;;0.60;0.50;;;;;;;;;;4957341;28;20257;-68
2022/02/03 12:27:05;;;;;;;3.70;1.47;;;;;;;;;;4955580;28;20320;-68
2022/02/03 12:29:38;;;;;;;1.43;1.33;;;;;;;;;;4955882;28;20202;-71
2022/02/03 12:32:14;;;;;;;1.27;0.50;;;;;;;;;;4955027;28;20281;-69
2022/02/03 12:37:58;;;;;;;2.00;1.83;;;;;;;;;;4954413;28;20567;-68
2022/02/03 12:40:36;;;;;;;0.10;0.10;;;;;;;;;;4955004;28;20284;-68
2022/02/03 12:43:14;;;;;;;1.47;1.20;;;;;;;;;;4955281;28;20317;-68
2022/02/03 12:45:42;;;;;;;2.57;1.13;;;;;;;;;;4955179;28;20228;-68
2022/02/03 12:48:11;;;;;;;0.43;0.43;;;;;;;;;;4956135;28;20205;-68
2022/02/03 12:50:40;;;;;;;0.40;0.40;;;;;;;;;;4958192;28;20273;-68
2022/02/03 12:53:08;;;;;;;2.60;2.40;;;;;;;;;;4955770;28;20197;-68
2022/02/03 12:55:38;;;;;;;1.53;1.00;;;;;;;;;;4952272;28;20198;-71
2022/02/03 12:58:09;;;;;;;1.00;0.93;;;;;;;;;;4955978;28;20197;-69
2022/02/03 13:00:41;;;;;;;2.13;1.93;;;;;;;;;;4954482;28;20206;-69
2022/02/03 13:03:11;;;;;;;0.27;0.27;;;;;;;;;;4959865;28;20233;-71
2022/02/03 13:05:40;;;;;;;1.20;1.10;;;;;;;;;;4968690;28;20194;-72
2022/02/03 13:08:10;;;;;;;0.60;0.60;;;;;;;;;;4966842;28;20202;-64
2022/02/03 13:10:40;;;;;;;1.60;0.57;;;;;;;;;;4959475;28;20206;-68
2022/02/03 13:13:15;;;;;;;0.10;0.10;;;;;;;;;;4963302;28;20217;-68
2022/02/03 13:15:44;;;;;;;0.97;0.77;;;;;;;;;;4965596;28;20198;-68
2022/02/03 13:18:16;;;;;;;0.73;0.73;;;;;;;;;;4966041;28;20233;-67
2022/02/03 13:20:49;;;;;;;0.97;0.97;;;;;;;;;;4965807;28;20648;-67
2022/02/03 13:23:21;;;;;;;1.90;1.77;;;;;;;;;;4965363;28;20234;-70
2022/02/03 13:26:02;;;;;;;1.17;1.10;;;;;;;;;;4965622;28;20194;-69
2022/02/03 13:28:40;;;;;;;0.30;0.30;;;;;;;;;;4963503;28;20658;-71
2022/02/03 13:31:18;;;;;;;0.50;0.50;;;;;;;;;;4966226;28;20211;-67
2022/02/03 13:33:59;;;;;;;0.33;0.33;;;;;;;;;;4963886;28;20201;-69
2022/02/03 13:36:32;;;;;;;3.43;2.47;;;;;;;;;;4965090;28;20198;-71
2022/02/03 13:39:04;;;;;;;0.97;0.33;;;;;;;;;;4964867;28;20202;-70
2022/02/03 13:41:38;;;;;;;0.77;0.77;;;;;;;;;;4964390;28;20289;-69
2022/02/03 13:44:05;;;;;;;1.03;1.03;;;;;;;;;;4966135;28;20254;-69
2022/02/03 13:46:34;;;;;;;0.30;0.13;;;;;;;;;;4967618;28;20198;-69
2022/02/03 13:49:01;;;;;;;1.30;1.20;;;;;;;;;;4965377;28;20289;-68
2022/02/03 13:51:29;;;;;;;0.20;0.20;;;;;;;;;;4965642;28;20215;-68
2022/02/03 13:54:05;;;;;;;1.43;1.33;;;;;;;;;;4966334;28;20944;-68
2022/02/03 14:13:49;;;;;;;1.07;0.90;;;;;;;;;;4965236;28;20199;-68
2022/02/03 14:16:44;;;;;;;0.27;0.27;;;;;;;;;;4963712;28;20319;-67
2022/02/03 14:19:53;;;;;;;0.00;0.00;;;;;;;;;;4962594;28;20206;-69
2022/02/03 14:22:24;;;;;;;2.70;1.50;;;;;;;;;;4963396;28;20198;-69
2022/02/03 14:27:37;;;;;;;0.90;0.90;;;;;;;;;;4963098;28;20209;-68
2022/02/03 14:30:15;;;;;;;0.10;0.10;;;;;;;;;;4964482;28;20497;-68
2022/02/03 14:32:43;;;;;;;0.00;0.00;;;;;;;;;;4964023;28;20752;-68
2022/02/03 14:35:11;;;;;;;0.00;0.00;;;;;;;;;;4965086;28;20205;-68
2022/02/03 14:37:46;;;;;;;0.43;0.43;;;;;;;;;;4965706;28;20217;-68
2022/02/03 14:40:34;;;;;;;2.97;0.90;;;;;;;;;;4964496;28;20281;-68
2022/02/03 14:43:04;;;;;;;1.80;1.70;;;;;;;;;;4963404;28;20221;-67
2022/02/03 14:45:33;;;;;;;0.83;0.30;;;;;;;;;;4963399;28;20617;-71
2022/02/03 14:48:00;;;;;;;0.00;0.00;;;;;;;;;;4964516;28;20202;-67
2022/02/03 14:50:27;;;;;;;1.17;0.90;;;;;;;;;;4961797;28;20196;-70
2022/02/03 14:52:58;;;;;;;3.20;1.37;;;;;;;;;;4963960;28;20199;-72
2022/02/03 14:58:18;;;;;;;0.57;0.20;;;;;;;;;;4963777;28;20243;-70
2022/02/03 15:00:48;;;;;;;0.83;0.60;;;;;;;;;;4965068;28;20300;-68
2022/02/03 15:03:16;;;;;;;0.07;0.07;;;;;;;;;;4963688;28;20218;-76
2022/02/03 15:05:43;;;;;;;0.00;0.00;;;;;;;;;;4963201;28;20202;-71
2022/02/03 15:08:18;;;;;;;0.33;0.33;;;;;;;;;;4964939;28;20202;-70
2022/02/03 15:10:51;;;;;;;0.57;0.40;;;;;;;;;;4963102;28;20202;-71
2022/02/03 15:13:33;;;;;;;1.70;0.47;;;;;;;;;;4965534;28;20187;-70
2022/02/03 15:16:01;;;;;;;0.73;0.63;;;;;;;;;;4970633;28;20197;-69
2022/02/03 15:18:29;;;;;;;0.33;0.30;;;;;;;;;;4970132;28;20659;-70
2022/02/03 15:20:57;;;;;;;0.53;0.53;;;;;;;;;;4968490;28;20741;-68
2022/02/03 15:23:25;;;;;;;0.77;0.77;;;;;;;;;;4970799;28;20230;-68
2022/02/03 15:25:52;;;;;;;1.03;0.53;;;;;;;;;;4970039;28;20198;-70
2022/02/03 15:28:20;;;;;;;1.13;0.97;;;;;;;;;;4971329;28;20201;-68
2022/02/03 15:30:48;;;;;;;0.50;0.50;;;;;;;;;;4968275;28;20229;-68
2022/02/03 15:33:22;;;;;;;1.43;0.73;;;;;;;;;;4971345;28;20207;-70
2022/02/03 15:35:53;;;;;;;0.23;0.23;;;;;;;;;;4971580;28;20236;-68
2022/02/03 15:38:22;;;;;;;0.93;0.93;;;;;;;;;;4968778;28;20198;-68
2022/02/03 15:40:52;;;;;;;0.73;0.53;;;;;;;;;;4963872;28;20190;-68
2022/02/03 15:43:27;;;;;;;0.40;0.27;;;;;;;;;;4965748;28;20747;-67
2022/02/03 15:45:58;;;;;;;0.50;0.50;;;;;;;;;;4969834;28;20205;-66
2022/02/03 15:48:36;;;;;;;0.33;0.20;;;;;;;;;;4969626;28;20198;-67
2022/02/03 15:56:08;;;;;;;0.00;0.00;;;;;;;;;;4968748;28;20209;-67
2022/02/03 15:57:05;;;;;;;2.60;1.40;;;;;;;;;;4970325;28;20317;-68
2022/02/03 16:02:54;;;;;;;0.00;0.00;;;;;;;;;;4967958;28;20594;-68
2022/02/03 16:14:08;;;;;;;0.00;0.00;;;;;;;;;;4968384;28;20249;-68
2022/02/03 16:19:11;;;;;;;1.30;0.73;;;;;;;;;;4956043;28;20655;-68
2022/02/03 16:21:45;;;;;;;0.00;0.00;;;;;;;;;;4959978;28;20582;-71
2022/02/03 16:24:27;;;;;;;0.70;0.70;;;;;;;;;;4961421;28;20660;-68
2022/02/03 16:51:58;;;;;;;1.40;1.17;;;;;;;;;;4962718;28;20229;-68
2022/02/03 16:54:27;;;;;;;0.57;0.57;;;;;;;;;;4963503;28;20289;-72
2022/02/03 16:56:59;;;;;;;0.00;0.00;;;;;;;;;;4962468;28;20202;-69
2022/02/03 16:59:29;;;;;;;0.33;0.33;;;;;;;;;;4961453;28;20757;-70
2022/02/03 17:01:56;;;;;;;0.00;0.00;;;;;;;;;;4960037;28;20280;-68
2022/02/03 17:04:24;;;;;;;0.20;0.20;;;;;;;;;;4959826;28;20666;-69
2022/02/03 17:06:51;;;;;;;0.47;0.17;;;;;;;;;;4960054;28;20198;-68
2022/02/03 17:09:19;;;;;;;1.10;1.00;;;;;;;;;;4959523;28;20198;-70
2022/02/03 17:11:47;;;;;;;0.87;0.83;;;;;;;;;;4960593;28;20213;-68
2022/02/03 17:14:15;;;;;;;0.73;0.73;;;;;;;;;;4960870;28;20206;-69
2022/02/03 17:16:42;;;;;;;0.00;0.00;;;;;;;;;;4960181;28;20198;-69
2022/02/03 17:19:09;;;;;;;0.40;0.40;;;;;;;;;;4959890;28;20198;-69
2022/02/03 17:21:37;;;;;;;0.40;0.40;;;;;;;;;;4959230;28;20229;-67
2022/02/03 17:24:04;;;;;;;0.13;0.13;;;;;;;;;;4960079;28;20237;-69
2022/02/03 17:26:38;;;;;;;0.63;0.63;;;;;;;;;;4960101;28;20206;-70
2022/02/03 17:29:14;;;;;;;1.63;1.53;;;;;;;;;;4960687;28;20206;-69
2022/02/03 17:31:55;;;;;;;0.60;0.33;;;;;;;;;;4959287;28;20328;-70
2022/02/03 18:10:47;;;;;;;0.40;0.13;;;;;;;;;;4966598;28;20201;-69
2022/02/03 18:30:09;;;;;;;0.23;0.23;;;;;;;;;;4944302;28;20213;-68
2022/02/03 18:33:15;;;;;;;0.50;0.50;;;;;;;;;;4966070;28;20284;-67
2022/02/03 18:35:57;;;;;;;1.50;1.40;;;;;;;;;;4964521;28;20202;-66
2022/02/03 18:50:00;;;;;;;0.50;0.50;;;;;;;;;;4968346;28;20758;-67
2022/02/03 18:52:40;;;;;;;0.00;0.00;;;;;;;;;;4961372;28;20595;-70
2022/02/03 18:55:20;;;;;;;0.33;0.33;;;;;;;;;;4964352;28;20268;-67
2022/02/03 18:57:55;;;;;;;0.43;0.43;;;;;;;;;;4963100;28;20670;-67
2022/02/03 19:00:47;;;;;;;0.27;0.27;;;;;;;;;;4963833;28;20198;-70
2022/02/03 19:23:32;;;;;;;0.20;0.20;;;;;;;;;;4964072;28;20260;-70
2022/02/03 20:04:38;;;;;;;0.40;0.40;;;;;;;;;;4963043;28;20241;-69
2022/02/03 20:07:15;;;;;;;0.17;0.17;;;;;;;;;;4960971;28;20675;-70
2022/02/03 20:09:59;;;;;;;0.73;0.73;;;;;;;;;;4963810;28;20701;-69
2022/02/03 20:12:26;;;;;;;0.63;0.63;;;;;;;;;;4963330;28;20199;-72
2022/02/03 20:14:55;;;;;;;0.73;0.73;;;;;;;;;;4961527;28;20206;-67
2022/02/03 20:17:23;;;;;;;1.90;1.30;;;;;;;;;;4962926;28;20590;-68
2022/02/03 20:19:51;;;;;;;0.10;0.10;;;;;;;;;;4962747;28;20276;-69
2022/02/03 20:22:18;;;;;;;0.87;0.87;;;;;;;;;;4962917;28;20344;-70
2022/02/03 20:24:47;;;;;;;3.23;2.07;;;;;;;;;;4964399;28;20573;-68
2022/02/03 20:27:16;;;;;;;0.83;0.83;;;;;;;;;;4962802;28;20551;-69
2022/02/03 20:29:44;;;;;;;0.00;0.00;;;;;;;;;;4961990;28;20194;-70
2022/02/03 20:32:13;;;;;;;1.20;1.13;;;;;;;;;;4963622;28;20203;-71
2022/02/03 20:34:40;;;;;;;0.00;0.00;;;;;;;;;;4963512;28;20856;-67
2022/02/03 20:37:07;;;;;;;2.37;1.60;;;;;;;;;;4954915;28;20678;-70
2022/02/03 20:39:35;;;;;;;0.00;0.00;;;;;;;;;;4955333;28;20547;-73
2022/02/03 20:42:02;;;;;;;0.00;0.00;;;;;;;;;;4954437;28;20210;-69
2022/02/03 20:44:29;;;;;;;0.20;0.20;;;;;;;;;;4959585;28;20991;-69
2022/02/03 20:46:57;;;;;;;0.60;0.60;;;;;;;;;;4953847;28;20209;-70
2022/02/03 20:49:25;;;;;;;1.07;0.67;;;;;;;;;;4954578;28;20209;-72
2022/02/03 20:51:55;;;;;;;0.20;0.20;;;;;;;;;;4955680;28;20214;-74
2022/02/03 20:54:22;;;;;;;1.77;1.67;;;;;;;;;;4955693;28;20202;-69
2022/02/03 20:56:50;;;;;;;1.70;1.60;;;;;;;;;;4954081;28;20567;-68
2022/02/03 20:59:25;;;;;;;1.90;1.40;;;;;;;;;;4954984;28;20563;-68
2022/02/03 21:01:54;;;;;;;1.23;0.60;;;;;;;;;;4954637;28;20201;-70
2022/02/03 21:04:32;;;;;;;1.47;1.10;;;;;;;;;;4960607;28;20273;-67
2022/02/03 21:07:01;;;;;;;0.43;0.43;;;;;;;;;;4962227;28;20664;-68
2022/02/03 21:09:28;;;;;;;1.50;1.40;;;;;;;;;;4965318;28;20202;-68
2022/02/03 21:11:55;;;;;;;0.60;0.47;;;;;;;;;;4961876;28;20613;-68
2022/02/03 21:14:23;;;;;;;0.00;0.00;;;;;;;;;;4962818;28;20201;-68
2022/02/03 21:16:52;;;;;;;1.40;0.77;;;;;;;;;;4961201;28;21314;-69
2022/02/03 21:19:21;;;;;;;0.03;0.03;;;;;;;;;;4962602;28;20277;-70
2022/02/03 21:21:49;;;;;;;1.07;1.07;;;;;;;;;;4962273;28;20202;-71
2022/02/03 21:24:17;;;;;;;1.87;1.40;;;;;;;;;;4964224;28;20218;-68
2022/02/03 21:26:45;;;;;;;1.70;1.60;;;;;;;;;;4966037;28;20210;-69
2022/02/03 21:29:13;;;;;;;1.67;1.57;;;;;;;;;;4963459;28;20831;-69
2022/02/03 21:31:40;;;;;;;2.60;2.40;;;;;;;;;;4966317;28;20198;-68
2022/02/03 21:34:13;;;;;;;0.37;0.37;;;;;;;;;;4965622;28;20201;-69
2022/02/03 21:36:41;;;;;;;0.43;0.40;;;;;;;;;;4967560;28;20190;-68
2022/02/03 21:39:09;;;;;;;2.07;1.93;;;;;;;;;;4966405;28;20201;-69
2022/02/03 21:41:38;;;;;;;2.37;1.73;;;;;;;;;;4966259;28;20254;-69
2022/02/03 21:44:06;;;;;;;2.07;1.57;;;;;;;;;;4967159;28;20202;-69
2022/02/03 21:46:34;;;;;;;0.67;0.67;;;;;;;;;;4965794;28;20230;-71
2022/02/03 21:49:01;;;;;;;2.47;1.03;;;;;;;;;;4965976;28;20570;-70
2022/02/03 21:51:28;;;;;;;3.80;3.50;;;;;;;;;;4965071;28;20655;-70
2022/02/03 21:53:56;;;;;;;1.33;1.23;;;;;;;;;;4966322;28;20202;-70
2022/02/03 21:56:23;;;;;;;4.17;1.43;;;;;;;;;;4966327;28;20202;-70
2022/02/03 21:58:52;;;;;;;3.20;2.53;;;;;;;;;;4963392;28;20186;-69
2022/02/03 22:01:22;;;;;;;4.83;2.03;;;;;;;;;;4966939;28;20678;-67
2022/02/03 22:03:50;;;;;;;0.87;0.73;;;;;;;;;;4964744;28;20253;-68
2022/02/03 22:06:17;;;;;;;1.70;1.60;;;;;;;;;;4966417;28;20217;-68
2022/02/03 22:08:45;;;;;;;0.60;0.60;;;;;;;;;;4965755;28;20202;-67
2022/02/03 22:11:12;;;;;;;0.60;0.60;;;;;;;;;;4966225;28;20225;-72
2022/02/03 22:13:40;;;;;;;0.93;0.93;;;;;;;;;;4964895;28;20962;-70
2022/02/03 22:16:12;;;;;;;1.17;1.17;;;;;;;;;;4961505;28;20206;-68
2022/02/03 22:18:40;;;;;;;0.87;0.87;;;;;;;;;;4956173;28;20206;-69
2022/02/03 22:21:13;;;;;;;0.50;0.50;;;;;;;;;;4958220;28;20244;-69
2022/02/03 22:23:51;;;;;;;0.53;0.53;;;;;;;;;;4957146;28;20784;-69
2022/02/03 22:26:48;;;;;;;1.47;1.37;;;;;;;;;;4957505;28;20520;-72
2022/02/03 22:43:18;;;;;;;1.03;1.03;;;;;;;;;;4959122;28;20194;-70
2022/02/03 22:45:56;;;;;;;1.07;0.63;;;;;;;;;;4958517;28;20237;-72
2022/02/03 22:48:26;;;;;;;1.37;1.37;;;;;;;;;;4955651;28;20207;-68
2022/02/03 22:50:54;;;;;;;0.23;0.17;;;;;;;;;;4955520;28;20198;-68
2022/02/03 22:53:21;;;;;;;0.17;0.17;;;;;;;;;;4955933;28;20211;-69
2022/02/03 22:55:49;;;;;;;6.80;2.97;;;;;;;;;;4956608;28;20217;-67
2022/02/03 22:58:38;;;;;;;0.60;0.60;;;;;;;;;;4957910;28;20213;-67
2022/02/03 23:01:08;;;;;;;0.47;0.47;;;;;;;;;;4957000;28;20214;-67
2022/02/03 23:03:40;;;;;;;0.30;0.30;;;;;;;;;;4958686;28;20202;-68
2022/02/03 23:06:07;;;;;;;0.00;0.00;;;;;;;;;;4955041;28;20230;-67
2022/02/03 23:08:50;;;;;;;0.07;0.07;;;;;;;;;;4954720;28;21151;-71
2022/02/03 23:11:33;;;;;;;0.23;0.23;;;;;;;;;;4955286;28;20206;-70
2022/02/03 23:14:09;;;;;;;0.20;0.20;;;;;;;;;;4956095;28;20213;-72
2022/02/03 23:16:47;;;;;;;0.30;0.30;;;;;;;;;;4957736;28;20198;-69
2022/02/03 23:19:35;;;;;;;2.47;1.80;;;;;;;;;;4955695;28;20202;-71
2022/02/03 23:22:11;;;;;;;2.87;0.87;;;;;;;;;;4955219;28;20244;-69
2022/02/03 23:24:39;;;;;;;2.40;2.20;;;;;;;;;;4957081;28;20213;-69
2022/02/03 23:27:27;;;;;;;1.17;1.07;;;;;;;;;;4955385;28;20236;-69
2022/02/03 23:29:55;;;;;;;1.03;1.03;;;;;;;;;;4955826;28;21164;-70
2022/02/03 23:32:23;;;;;;;0.00;0.00;;;;;;;;;;4956365;28;20211;-69
2022/02/03 23:34:59;;;;;;;1.33;1.20;;;;;;;;;;4958435;28;20210;-70
2022/02/03 23:37:30;;;;;;;0.93;0.77;;;;;;;;;;4957057;28;20284;-69
2022/02/03 23:40:03;;;;;;;2.30;1.80;;;;;;;;;;4953296;28;20199;-70
2022/02/03 23:43:16;;;;;;;0.30;0.30;;;;;;;;;;4959326;28;20210;-70
2022/02/03 23:46:00;;;;;;;0.30;0.30;;;;;;;;;;4956316;28;20468;-68
